createdAt,value
2022-11-05T00:00:37.421Z,52.08
2022-11-05T00:10:38.996Z,52.18
2022-11-05T00:20:40.451Z,52.36
2022-11-05T00:30:41.843Z,52.37
2022-11-05T00:40:43.253Z,52.48
2022-11-05T00:50:44.632Z,52.55
2022-11-05T01:01:04.202Z,52.47
2022-11-05T01:11:32.874Z,52.58
2022-11-05T01:21:34.399Z,52.48
2022-11-05T01:31:35.905Z,52.52
2022-11-05T01:41:37.437Z,52.41
2022-11-05T01:51:38.970Z,52.33
2022-11-05T02:01:40.472Z,52.26
2022-11-05T02:11:41.926Z,52.25
2022-11-05T02:22:08.378Z,52.16
2022-11-05T02:32:31.671Z,52.16
2022-11-05T02:42:55.813Z,52.14
2022-11-05T02:53:09.642Z,52.07
2022-11-05T03:03:24.711Z,52.08
2022-11-05T03:13:40.788Z,52.17
2022-11-05T03:23:52.985Z,52.06
2022-11-05T03:33:54.552Z,52.29
2022-11-05T03:44:33.976Z,52.32
2022-11-05T03:54:35.434Z,52.32
2022-11-05T04:04:37.040Z,52.45
2022-11-05T04:14:39.988Z,52.49
2022-11-05T04:24:41.533Z,52.47
2022-11-05T04:34:42.926Z,52.55
2022-11-05T04:44:44.876Z,52.59
2022-11-05T04:54:46.264Z,52.78
2022-11-05T05:04:47.825Z,52.84
2022-11-05T05:14:49.463Z,52.99
2022-11-05T05:24:52.903Z,52.92
2022-11-05T05:34:54.525Z,53.08
2022-11-05T05:44:55.938Z,53.01
2022-11-05T05:54:57.471Z,53.02
2022-11-05T06:04:58.893Z,53.08
2022-11-05T06:15:00.287Z,53.03
2022-11-05T06:25:01.754Z,53.08
2022-11-05T06:35:03.351Z,52.99
2022-11-05T06:45:05.176Z,53.01
2022-11-05T06:55:06.729Z,53.00
2022-11-05T07:05:10.976Z,53.00
2022-11-05T07:15:12.383Z,52.81
2022-11-05T07:25:13.751Z,52.74
2022-11-05T07:35:15.215Z,51.68
2022-11-05T07:45:16.744Z,50.46
2022-11-05T07:55:18.912Z,50.17
2022-11-05T08:05:20.281Z,50.15
2022-11-05T08:15:22.059Z,50.15
2022-11-05T08:25:23.748Z,50.05
2022-11-05T08:35:26.421Z,49.22
2022-11-05T08:45:27.874Z,48.06
2022-11-05T08:55:29.410Z,46.90
2022-11-05T09:05:31.199Z,46.64
2022-11-05T09:15:33.262Z,46.35
2022-11-05T09:25:34.638Z,45.93
2022-11-05T09:35:38.683Z,45.85
2022-11-05T09:45:40.134Z,46.02
2022-11-05T09:55:43.234Z,46.15
2022-11-05T10:05:44.716Z,46.59
2022-11-05T10:16:10.182Z,46.74
2022-11-05T10:26:13.827Z,46.72
2022-11-05T10:36:30.512Z,46.85
2022-11-05T10:46:42.286Z,47.08
2022-11-05T10:56:44.086Z,47.15
2022-11-05T11:06:50.263Z,47.42
2022-11-05T11:16:53.269Z,47.23
2022-11-05T11:26:54.638Z,47.45
2022-11-05T11:37:05.429Z,47.11
2022-11-05T11:47:12.827Z,47.19
2022-11-05T11:57:27.466Z,47.66
2022-11-05T12:07:57.912Z,47.47
2022-11-05T12:18:06.000Z,47.56
2022-11-05T12:28:13.910Z,48.06
2022-11-05T12:38:36.620Z,48.13
2022-11-05T12:48:53.133Z,48.10
2022-11-05T12:59:12.705Z,48.16
2022-11-05T13:09:39.850Z,48.57
2022-11-05T13:19:46.620Z,48.51
2022-11-05T13:29:50.133Z,48.68
2022-11-05T13:39:57.078Z,48.69
2022-11-05T13:50:17.018Z,48.68
2022-11-05T14:00:22.489Z,48.81
2022-11-05T14:10:31.168Z,48.96
2022-11-05T14:20:32.378Z,49.05
2022-11-05T14:30:41.069Z,48.98
2022-11-05T14:40:43.766Z,49.22
2022-11-05T14:50:45.317Z,49.39
2022-11-05T15:00:47.491Z,49.45
2022-11-05T15:10:48.870Z,49.63
2022-11-05T15:20:53.159Z,49.74
2022-11-05T15:30:59.698Z,49.92
2022-11-05T15:41:06.352Z,49.94
2022-11-05T15:51:08.849Z,50.18
2022-11-05T16:01:39.446Z,50.07
2022-11-05T16:11:40.946Z,50.24
2022-11-05T16:21:54.868Z,50.58
2022-11-05T16:31:56.959Z,50.35
2022-11-05T16:41:58.344Z,50.28
2022-11-05T16:51:59.961Z,50.68
2022-11-05T17:02:01.575Z,50.70
2022-11-05T17:12:03.101Z,50.73
2022-11-05T17:22:04.637Z,50.81
2022-11-05T17:32:06.258Z,50.79
2022-11-05T17:42:07.647Z,50.86
2022-11-05T17:52:09.041Z,50.80
2022-11-05T18:02:11.433Z,50.93
2022-11-05T18:12:12.983Z,51.03
2022-11-05T18:22:16.164Z,51.08
2022-11-05T18:32:17.569Z,50.93
2022-11-05T18:42:19.747Z,51.11
2022-11-05T18:52:21.131Z,51.05
2022-11-05T19:02:22.578Z,51.10
2022-11-05T19:12:24.106Z,51.10
2022-11-05T19:22:25.885Z,51.49
2022-11-05T19:32:27.603Z,51.70
2022-11-05T19:42:31.354Z,52.00
2022-11-05T19:52:32.748Z,51.25
2022-11-05T20:02:34.217Z,51.34
2022-11-05T20:12:36.000Z,51.28
2022-11-05T20:22:38.267Z,50.93
2022-11-05T20:32:39.653Z,50.78
2022-11-05T20:42:41.062Z,50.87
2022-11-05T20:52:42.465Z,51.16
2022-11-05T21:02:44.019Z,51.12
2022-11-05T21:12:45.672Z,51.32
2022-11-05T21:22:47.355Z,51.34
2022-11-05T21:32:48.751Z,51.26
2022-11-05T21:42:50.276Z,51.27
2022-11-05T21:53:10.234Z,51.07
2022-11-05T22:03:11.606Z,50.69
2022-11-05T22:13:12.979Z,50.69
2022-11-05T22:23:14.354Z,50.59
2022-11-05T22:33:15.732Z,50.79
2022-11-05T22:43:17.111Z,50.86
2022-11-05T22:53:18.520Z,50.99
2022-11-05T23:03:19.961Z,51.10
2022-11-05T23:13:21.369Z,51.09
2022-11-05T23:23:41.388Z,51.11
2022-11-05T23:33:42.788Z,51.14
2022-11-05T23:44:02.910Z,50.78
2022-11-05T23:54:04.295Z,50.99
